Hays Regional Airport Hays US
ICAO: KHYS
IATA: HYS
Category: Medium
Scheduled Services: No

Elevation: 1999 ft
TransAlt. 18000 ft.

Airport Communications:
AWOS 3:125.525
KANSAS CITY CNTR:124.4
WICHITA RDO:122.3
CTAF/UNICOM:122.8

KHYS Zoom In..

If you have problems with the map follow the link
https://www.worldairports.se/pages/airport.php?
ICAO=KHYS

Runways:

(A) RW 04 length 4501 ft width 75 ft
---- / hdg 40

(B) RW 16 length 6501 ft width 100 ft
---- / hdg 159

(C) RW 22 length 4501 ft width 75 ft
---- / hdg 220

(D) RW 34 length 6501 ft width 100 ft
ILS 111.50 / hdg 339

Location; KHYS
Day. 22 / Time. 13.56 Zulu
* Altimeter: 29.82
* Temperature: 01° c. 33.8°f.
* Wind from: 170° Speed 05 kn.
Dewpoint: 01° c.
Visibility: 10 Statute Miles.
Clouds: Overcast 500 ft.
Conditions: Light Rain.

KHYS 221356Z AUTO 17005KT 10SM -RA OVC005 01/01 A2982 RMK AO2 RAB30SNE30 SLP113 P0002 T00060006 FZRANO


Wind From 170°
Speed 05 kn.

 
 
jpsmedia worldairports.se 2020   terms of use